PSMFR SABE-SBFI
Flight info
| Callsign | PSMFR |
|---|---|
| Flight time | 1h 45m |
| Altitude | 43000 |
| Route | KUKEN8 KUKEN UL324 CUARA UM532 AURIS UZ83 NELUP |
| Aircraft | GLF5/M-SBDE2E3FGHIJ4J5M1RWXY/LB1D1 |
Departure
| Time | 2026-04-26 23:27 |
|---|---|
| Airport | Aeroparque Jorge Newbery (SABE) |
Arrival
| Time | 2026-04-27 01:12 |
|---|---|
| Airport | Cataratas International Airport (SBFI) |
| Time | Latitude | Longitude | Altitude | Speed | Heading |
|---|---|---|---|---|---|
| 2026-04-26 22:50 | -34.56197 | -58.41399 | 35 ft | 0 kts | 213° |
| 2026-04-26 23:18 | -34.56201 | -58.41402 | 35 ft | 1 kts | 213° |
| 2026-04-26 23:18 | -34.56221 | -58.41413 | 35 ft | 4 kts | 184° |
| 2026-04-26 23:19 | -34.56237 | -58.41401 | 36 ft | 1 kts | 125° |
| 2026-04-26 23:19 | -34.56244 | -58.41389 | 36 ft | 3 kts | 125° |
| 2026-04-26 23:19 | -34.56276 | -58.41335 | 36 ft | 9 kts | 124° |
| 2026-04-26 23:19 | -34.56311 | -58.41272 | 36 ft | 8 kts | 123° |
| 2026-04-26 23:20 | -34.56342 | -58.41216 | 35 ft | 7 kts | 124° |
| 2026-04-26 23:20 | -34.56372 | -58.41162 | 34 ft | 7 kts | 123° |
| 2026-04-26 23:20 | -34.56405 | -58.41101 | 33 ft | 8 kts | 123° |
| 2026-04-26 23:20 | -34.56439 | -58.41040 | 32 ft | 8 kts | 124° |
| 2026-04-26 23:21 | -34.56472 | -58.40981 | 31 ft | 7 kts | 123° |
| 2026-04-26 23:21 | -34.56500 | -58.40932 | 31 ft | 6 kts | 123° |
| 2026-04-26 23:21 | -34.56517 | -58.40891 | 31 ft | 4 kts | 102° |
| 2026-04-26 23:21 | -34.56512 | -58.40850 | 31 ft | 6 kts | 68° |
| 2026-04-26 23:22 | -34.56490 | -58.40797 | 31 ft | 0 kts | 63° |
| 2026-04-26 23:23 | -34.56488 | -58.40791 | 31 ft | 2 kts | 63° |
| 2026-04-26 23:24 | -34.56487 | -58.40789 | 31 ft | 0 kts | 63° |
| 2026-04-26 23:25 | -34.56471 | -58.40750 | 31 ft | 9 kts | 63° |
| 2026-04-26 23:26 | -34.56425 | -58.40695 | 30 ft | 10 kts | 352° |
| 2026-04-26 23:26 | -34.56399 | -58.40722 | 30 ft | 0 kts | 305° |
| 2026-04-26 23:27 | -34.56396 | -58.40727 | 30 ft | 11 kts | 304° |
| 2026-04-26 23:27 | -34.56173 | -58.41126 | 34 ft | 101 kts | 304° |
| 2026-04-26 23:27 | -34.55611 | -58.42128 | 153 ft | 167 kts | 304° |
| 2026-04-26 23:27 | -34.55174 | -58.42889 | 839 ft | 165 kts | 305° |
| 2026-04-26 23:28 | -34.54248 | -58.44308 | 1710 ft | 171 kts | 311° |
| 2026-04-26 23:28 | -34.53469 | -58.45347 | 2583 ft | 161 kts | 311° |
| 2026-04-26 23:28 | -34.52614 | -58.46350 | 2917 ft | 185 kts | 335° |
| 2026-04-26 23:28 | -34.51407 | -58.46363 | 3875 ft | 170 kts | 27° |
| 2026-04-26 23:29 | -34.50587 | -58.45410 | 4815 ft | 155 kts | 53° |
| 2026-04-26 23:29 | -34.49876 | -58.44240 | 5024 ft | 189 kts | 53° |
| 2026-04-26 23:29 | -34.49006 | -58.42813 | 5054 ft | 234 kts | 53° |
| 2026-04-26 23:29 | -34.47961 | -58.41098 | 5031 ft | 264 kts | 53° |
| 2026-04-26 23:30 | -34.46703 | -58.39406 | 5005 ft | 271 kts | 37° |
| 2026-04-26 23:30 | -34.45108 | -58.38159 | 5002 ft | 271 kts | 30° |
| 2026-04-26 23:30 | -34.43473 | -58.37083 | 5299 ft | 265 kts | 27° |
| 2026-04-26 23:30 | -34.41801 | -58.36038 | 6076 ft | 268 kts | 27° |
| 2026-04-26 23:31 | -34.40100 | -58.34993 | 6844 ft | 273 kts | 26° |
| 2026-04-26 23:31 | -34.38399 | -58.33955 | 7598 ft | 277 kts | 26° |
| 2026-04-26 23:31 | -34.36670 | -58.32901 | 8352 ft | 281 kts | 26° |
| 2026-04-26 23:31 | -34.34893 | -58.31818 | 9117 ft | 284 kts | 26° |
| 2026-04-26 23:32 | -34.33080 | -58.30715 | 10238 ft | 281 kts | 26° |
| 2026-04-26 23:32 | -34.31340 | -58.29657 | 11492 ft | 273 kts | 26° |
| 2026-04-26 23:32 | -34.29620 | -58.28611 | 12511 ft | 272 kts | 26° |
| 2026-04-26 23:32 | -34.27920 | -58.27578 | 13500 ft | 272 kts | 26° |
| 2026-04-26 23:33 | -34.26226 | -58.26549 | 14373 ft | 275 kts | 26° |
| 2026-04-26 23:33 | -34.24503 | -58.25503 | 15201 ft | 280 kts | 26° |
| 2026-04-26 23:33 | -34.22690 | -58.24402 | 15982 ft | 288 kts | 26° |
| 2026-04-26 23:33 | -34.20868 | -58.23297 | 16750 ft | 296 kts | 26° |
| 2026-04-26 23:34 | -34.19004 | -58.22167 | 17515 ft | 304 kts | 26° |
| 2026-04-26 23:34 | -34.17041 | -58.21102 | 18283 ft | 311 kts | 21° |
| 2026-04-26 23:34 | -34.15008 | -58.20140 | 19048 ft | 318 kts | 21° |
| 2026-04-26 23:34 | -34.12911 | -58.19130 | 19818 ft | 326 kts | 21° |
| 2026-04-26 23:35 | -34.10776 | -58.18099 | 20584 ft | 333 kts | 21° |
| 2026-04-26 23:35 | -34.08572 | -58.17036 | 21357 ft | 340 kts | 21° |
| 2026-04-26 23:35 | -34.06435 | -58.16006 | 22091 ft | 346 kts | 21° |
| 2026-04-26 23:35 | -34.04127 | -58.14893 | 22870 ft | 352 kts | 21° |
| 2026-04-26 23:36 | -34.01770 | -58.13757 | 23651 ft | 357 kts | 21° |
| 2026-04-26 23:36 | -33.99411 | -58.12620 | 24421 ft | 361 kts | 21° |
| 2026-04-26 23:36 | -33.97961 | -58.11922 | 24889 ft | 363 kts | 21° |
| 2026-04-26 23:36 | -33.95570 | -58.10771 | 25654 ft | 367 kts | 21° |
| 2026-04-26 23:37 | -33.93097 | -58.09582 | 26437 ft | 370 kts | 21° |
| 2026-04-26 23:37 | -33.90678 | -58.08419 | 27196 ft | 373 kts | 21° |
| 2026-04-26 23:37 | -33.88243 | -58.07250 | 27952 ft | 375 kts | 22° |
| 2026-04-26 23:37 | -33.85757 | -58.06056 | 28719 ft | 376 kts | 22° |
| 2026-04-26 23:38 | -33.83287 | -58.04870 | 29479 ft | 377 kts | 22° |
| 2026-04-26 23:38 | -33.80802 | -58.03679 | 30241 ft | 377 kts | 22° |
| 2026-04-26 23:38 | -33.78329 | -58.02494 | 30997 ft | 376 kts | 22° |
| 2026-04-26 23:38 | -33.75886 | -58.01324 | 31741 ft | 373 kts | 22° |
| 2026-04-26 23:39 | -33.73395 | -58.00132 | 32381 ft | 373 kts | 22° |
| 2026-04-26 23:39 | -33.70957 | -57.98965 | 33006 ft | 372 kts | 22° |
| 2026-04-26 23:39 | -33.68499 | -57.97791 | 33632 ft | 370 kts | 22° |
| 2026-04-26 23:39 | -33.66018 | -57.96605 | 34147 ft | 371 kts | 22° |
| 2026-04-26 23:40 | -33.63574 | -57.95438 | 34658 ft | 371 kts | 22° |
| 2026-04-26 23:40 | -33.61066 | -57.94242 | 35178 ft | 369 kts | 22° |
| 2026-04-26 23:40 | -33.58634 | -57.93082 | 35683 ft | 368 kts | 22° |
| 2026-04-26 23:40 | -33.56198 | -57.91922 | 36204 ft | 366 kts | 22° |
| 2026-04-26 23:41 | -33.53777 | -57.90768 | 36688 ft | 363 kts | 22° |
| 2026-04-26 23:41 | -33.51376 | -57.89624 | 37183 ft | 360 kts | 22° |
| 2026-04-26 23:41 | -33.49030 | -57.88506 | 37651 ft | 357 kts | 22° |
| 2026-04-26 23:41 | -33.46662 | -57.87378 | 37894 ft | 361 kts | 22° |
| 2026-04-26 23:42 | -33.44268 | -57.86239 | 38152 ft | 364 kts | 22° |
| 2026-04-26 23:42 | -33.39447 | -57.83946 | 38663 ft | 369 kts | 22° |
| 2026-04-26 23:42 | -33.37043 | -57.82804 | 38915 ft | 371 kts | 22° |
| 2026-04-26 23:43 | -33.34565 | -57.81627 | 39173 ft | 373 kts | 22° |
| 2026-04-26 23:43 | -33.32122 | -57.80468 | 39426 ft | 375 kts | 22° |
| 2026-04-26 23:43 | -33.29632 | -57.79287 | 39683 ft | 377 kts | 22° |
| 2026-04-26 23:43 | -33.27158 | -57.78114 | 39936 ft | 379 kts | 22° |
| 2026-04-26 23:44 | -33.24648 | -57.76925 | 40191 ft | 380 kts | 22° |
| 2026-04-26 23:44 | -33.22183 | -57.75758 | 40441 ft | 381 kts | 22° |
| 2026-04-26 23:44 | -33.19658 | -57.74564 | 40695 ft | 382 kts | 22° |
| 2026-04-26 23:44 | -33.17148 | -57.73377 | 40947 ft | 382 kts | 22° |
| 2026-04-26 23:45 | -33.14622 | -57.72183 | 41197 ft | 382 kts | 22° |
| 2026-04-26 23:45 | -33.12090 | -57.70988 | 41448 ft | 382 kts | 22° |
| 2026-04-26 23:45 | -33.09582 | -57.69804 | 41696 ft | 381 kts | 22° |
| 2026-04-26 23:45 | -33.07082 | -57.68625 | 41943 ft | 380 kts | 22° |
| 2026-04-26 23:46 | -33.04569 | -57.67440 | 42191 ft | 379 kts | 22° |
| 2026-04-26 23:46 | -33.02092 | -57.66273 | 42435 ft | 378 kts | 22° |
| 2026-04-26 23:46 | -32.99581 | -57.65091 | 42683 ft | 376 kts | 22° |
| 2026-04-26 23:46 | -32.97102 | -57.63925 | 42927 ft | 374 kts | 22° |
| 2026-04-26 23:47 | -32.94659 | -57.62776 | 43169 ft | 371 kts | 22° |
| 2026-04-26 23:47 | -32.92248 | -57.61643 | 43391 ft | 369 kts | 22° |
| 2026-04-26 23:47 | -32.89832 | -57.60508 | 43504 ft | 370 kts | 22° |
| 2026-04-26 23:47 | -32.87394 | -57.59364 | 43633 ft | 371 kts | 22° |
| 2026-04-26 23:48 | -32.84949 | -57.58217 | 43760 ft | 371 kts | 22° |
| 2026-04-26 23:48 | -32.82572 | -57.57103 | 44315 ft | 356 kts | 22° |
| 2026-04-26 23:48 | -32.77876 | -57.54903 | 44397 ft | 360 kts | 22° |
| 2026-04-26 23:49 | -32.73113 | -57.52674 | 44501 ft | 364 kts | 22° |
| 2026-04-26 23:49 | -32.68329 | -57.50438 | 44616 ft | 367 kts | 22° |
| 2026-04-26 23:50 | -32.65990 | -57.49346 | 45055 ft | 354 kts | 22° |
| 2026-04-26 23:50 | -32.63625 | -57.48242 | 44943 ft | 358 kts | 22° |
| 2026-04-26 23:50 | -32.58926 | -57.46051 | 44998 ft | 358 kts | 22° |
| 2026-04-26 23:51 | -32.54239 | -57.43868 | 45004 ft | 359 kts | 22° |
| 2026-04-26 23:51 | -32.49514 | -57.41670 | 45002 ft | 361 kts | 22° |
| 2026-04-26 23:52 | -32.44756 | -57.39459 | 45001 ft | 363 kts | 22° |
| 2026-04-26 23:52 | -32.39972 | -57.37238 | 45002 ft | 365 kts | 22° |
| 2026-04-26 23:53 | -32.35159 | -57.35006 | 45002 ft | 367 kts | 22° |
| 2026-04-26 23:53 | -32.30344 | -57.32777 | 45002 ft | 370 kts | 21° |
| 2026-04-26 23:54 | -32.25488 | -57.30530 | 45002 ft | 372 kts | 21° |
| 2026-04-26 23:54 | -32.20562 | -57.28254 | 45002 ft | 375 kts | 21° |
| 2026-04-26 23:55 | -32.15669 | -57.25996 | 45002 ft | 378 kts | 21° |
| 2026-04-26 23:55 | -32.10700 | -57.23705 | 45002 ft | 382 kts | 21° |
| 2026-04-26 23:56 | -32.05653 | -57.21381 | 45003 ft | 385 kts | 21° |
| 2026-04-26 23:56 | -32.00573 | -57.19045 | 45003 ft | 389 kts | 21° |
| 2026-04-26 23:57 | -31.95450 | -57.16692 | 45003 ft | 393 kts | 21° |
| 2026-04-26 23:57 | -31.90341 | -57.14333 | 45003 ft | 397 kts | 22° |
| 2026-04-26 23:58 | -31.85142 | -57.11822 | 45003 ft | 402 kts | 22° |
| 2026-04-26 23:58 | -31.79907 | -57.09300 | 45003 ft | 407 kts | 22° |
| 2026-04-26 23:59 | -31.74563 | -57.06835 | 45004 ft | 411 kts | 21° |
| 2026-04-26 23:59 | -31.69108 | -57.04355 | 45003 ft | 416 kts | 21° |
| 2026-04-27 00:00 | -31.63612 | -57.01860 | 45004 ft | 421 kts | 21° |
| 2026-04-27 00:00 | -31.58119 | -56.99368 | 45003 ft | 427 kts | 21° |
| 2026-04-27 00:01 | -31.52478 | -56.96813 | 45002 ft | 432 kts | 21° |
| 2026-04-27 00:01 | -31.46774 | -56.94233 | 45002 ft | 437 kts | 21° |
| 2026-04-27 00:02 | -31.41042 | -56.91643 | 45002 ft | 443 kts | 21° |
| 2026-04-27 00:02 | -31.35189 | -56.89003 | 45002 ft | 448 kts | 21° |
| 2026-04-27 00:03 | -31.29309 | -56.86353 | 45002 ft | 453 kts | 21° |
| 2026-04-27 00:03 | -31.23319 | -56.83658 | 45002 ft | 459 kts | 21° |
| 2026-04-27 00:04 | -31.17258 | -56.80934 | 45002 ft | 464 kts | 21° |
| 2026-04-27 00:04 | -31.11101 | -56.78171 | 45002 ft | 469 kts | 21° |
| 2026-04-27 00:05 | -31.04879 | -56.75383 | 45002 ft | 474 kts | 21° |
| 2026-04-27 00:05 | -30.98562 | -56.72557 | 45002 ft | 479 kts | 21° |
| 2026-04-27 00:06 | -30.92131 | -56.69684 | 45001 ft | 484 kts | 21° |
| 2026-04-27 00:06 | -30.85762 | -56.66835 | 45001 ft | 488 kts | 21° |
| 2026-04-27 00:07 | -30.79383 | -56.63974 | 45001 ft | 492 kts | 21° |
| 2026-04-27 00:07 | -30.72945 | -56.61091 | 45001 ft | 496 kts | 21° |
| 2026-04-27 00:08 | -30.66472 | -56.58273 | 45002 ft | 500 kts | 20° |
| 2026-04-27 00:08 | -30.59850 | -56.55435 | 45001 ft | 503 kts | 20° |
| 2026-04-27 00:09 | -30.53146 | -56.52566 | 45001 ft | 506 kts | 20° |
| 2026-04-27 00:09 | -30.46475 | -56.49715 | 45000 ft | 509 kts | 20° |
| 2026-04-27 00:10 | -30.39726 | -56.46810 | 44993 ft | 512 kts | 24° |
| 2026-04-27 00:10 | -30.36653 | -56.44688 | 45053 ft | 509 kts | 36° |
| 2026-04-27 00:10 | -30.33734 | -56.42295 | 44980 ft | 512 kts | 36° |
| 2026-04-27 00:11 | -30.27848 | -56.37451 | 45000 ft | 514 kts | 36° |
| 2026-04-27 00:11 | -30.22015 | -56.32649 | 45001 ft | 517 kts | 35° |
| 2026-04-27 00:12 | -30.16127 | -56.27809 | 45000 ft | 519 kts | 35° |
| 2026-04-27 00:12 | -30.10235 | -56.22973 | 45000 ft | 521 kts | 35° |
| 2026-04-27 00:13 | -30.04226 | -56.18048 | 45000 ft | 523 kts | 35° |
| 2026-04-27 00:13 | -29.98224 | -56.13137 | 45001 ft | 524 kts | 35° |
| 2026-04-27 00:14 | -29.92164 | -56.08186 | 45000 ft | 526 kts | 35° |
| 2026-04-27 00:14 | -29.86097 | -56.03236 | 45000 ft | 527 kts | 35° |
| 2026-04-27 00:15 | -29.80024 | -55.98289 | 45000 ft | 528 kts | 35° |
| 2026-04-27 00:15 | -29.73948 | -55.93347 | 45000 ft | 529 kts | 35° |
| 2026-04-27 00:16 | -29.67922 | -55.88453 | 45000 ft | 529 kts | 35° |
| 2026-04-27 00:16 | -29.61780 | -55.83472 | 45000 ft | 529 kts | 35° |
| 2026-04-27 00:17 | -29.55679 | -55.78533 | 45000 ft | 529 kts | 35° |
| 2026-04-27 00:17 | -29.49575 | -55.73598 | 45000 ft | 529 kts | 35° |
| 2026-04-27 00:18 | -29.43436 | -55.68642 | 45000 ft | 529 kts | 35° |
| 2026-04-27 00:18 | -29.37404 | -55.63780 | 44999 ft | 529 kts | 35° |
| 2026-04-27 00:19 | -29.31319 | -55.58883 | 45000 ft | 529 kts | 35° |
| 2026-04-27 00:19 | -29.25172 | -55.53943 | 45000 ft | 529 kts | 35° |
| 2026-04-27 00:20 | -29.19105 | -55.49074 | 45000 ft | 529 kts | 35° |
| 2026-04-27 00:20 | -29.12995 | -55.44179 | 45000 ft | 529 kts | 35° |
| 2026-04-27 00:21 | -29.06911 | -55.39311 | 44999 ft | 529 kts | 35° |
| 2026-04-27 00:21 | -29.00790 | -55.34421 | 44999 ft | 529 kts | 35° |
| 2026-04-27 00:22 | -28.94680 | -55.29547 | 44999 ft | 529 kts | 35° |
| 2026-04-27 00:22 | -28.88690 | -55.24775 | 44999 ft | 530 kts | 35° |
| 2026-04-27 00:23 | -28.82815 | -55.20102 | 44999 ft | 529 kts | 35° |
| 2026-04-27 00:23 | -28.76682 | -55.15231 | 44999 ft | 529 kts | 35° |
| 2026-04-27 00:24 | -28.70590 | -55.10399 | 44999 ft | 530 kts | 35° |
| 2026-04-27 00:24 | -28.64480 | -55.05560 | 44999 ft | 530 kts | 35° |
| 2026-04-27 00:25 | -28.58343 | -55.00706 | 44999 ft | 530 kts | 35° |
| 2026-04-27 00:25 | -28.52206 | -54.95860 | 44999 ft | 530 kts | 35° |
| 2026-04-27 00:26 | -28.46089 | -54.91036 | 44999 ft | 530 kts | 35° |
| 2026-04-27 00:26 | -28.39941 | -54.86196 | 44999 ft | 530 kts | 35° |
| 2026-04-27 00:27 | -28.33811 | -54.81376 | 45000 ft | 530 kts | 35° |
| 2026-04-27 00:27 | -28.27657 | -54.76543 | 44999 ft | 530 kts | 35° |
| 2026-04-27 00:28 | -28.21507 | -54.71732 | 44999 ft | 530 kts | 34° |
| 2026-04-27 00:28 | -28.17416 | -54.68569 | 44999 ft | 530 kts | 34° |
| 2026-04-27 00:29 | -28.13458 | -54.65510 | 44999 ft | 530 kts | 34° |
| 2026-04-27 00:29 | -28.07232 | -54.60704 | 44999 ft | 530 kts | 34° |
| 2026-04-27 00:30 | -28.01076 | -54.55959 | 44999 ft | 530 kts | 34° |
| 2026-04-27 00:30 | -27.94865 | -54.51178 | 44999 ft | 530 kts | 34° |
| 2026-04-27 00:31 | -27.88666 | -54.46412 | 44999 ft | 530 kts | 34° |
| 2026-04-27 00:31 | -27.82459 | -54.41747 | 44999 ft | 530 kts | 34° |
| 2026-04-27 00:32 | -27.76188 | -54.37068 | 44999 ft | 530 kts | 34° |
| 2026-04-27 00:32 | -27.69949 | -54.32419 | 44999 ft | 530 kts | 33° |
| 2026-04-27 00:33 | -27.63683 | -54.27755 | 44999 ft | 530 kts | 33° |
| 2026-04-27 00:33 | -27.57502 | -54.23117 | 45000 ft | 530 kts | 34° |
| 2026-04-27 00:34 | -27.51251 | -54.18409 | 45000 ft | 530 kts | 34° |
| 2026-04-27 00:34 | -27.45032 | -54.13732 | 45000 ft | 530 kts | 34° |
| 2026-04-27 00:35 | -27.38825 | -54.09071 | 44999 ft | 530 kts | 34° |
| 2026-04-27 00:35 | -27.32672 | -54.04456 | 44999 ft | 530 kts | 34° |
| 2026-04-27 00:36 | -27.26412 | -53.99768 | 44999 ft | 530 kts | 34° |
| 2026-04-27 00:36 | -27.20248 | -53.95158 | 44999 ft | 530 kts | 34° |
| 2026-04-27 00:37 | -27.14074 | -53.90546 | 44999 ft | 530 kts | 34° |
| 2026-04-27 00:37 | -27.07849 | -53.85900 | 44999 ft | 530 kts | 34° |
| 2026-04-27 00:38 | -27.01694 | -53.81313 | 44999 ft | 530 kts | 34° |
| 2026-04-27 00:38 | -26.95488 | -53.76694 | 44999 ft | 530 kts | 34° |
| 2026-04-27 00:39 | -26.89297 | -53.72092 | 44999 ft | 530 kts | 34° |
| 2026-04-27 00:39 | -26.83043 | -53.67453 | 44999 ft | 530 kts | 33° |
| 2026-04-27 00:40 | -26.76718 | -53.62971 | 44986 ft | 529 kts | 26° |
| 2026-04-27 00:40 | -26.69892 | -53.59547 | 44999 ft | 529 kts | 24° |
| 2026-04-27 00:41 | -26.63062 | -53.56142 | 45000 ft | 530 kts | 24° |
| 2026-04-27 00:41 | -26.56212 | -53.52729 | 44999 ft | 530 kts | 24° |
| 2026-04-27 00:42 | -26.49467 | -53.49375 | 44998 ft | 530 kts | 24° |
| 2026-04-27 00:42 | -26.45844 | -53.48235 | 45002 ft | 528 kts | 6° |
| 2026-04-27 00:42 | -26.42159 | -53.48373 | 45033 ft | 526 kts | 350° |
| 2026-04-27 00:43 | -26.38658 | -53.49672 | 45028 ft | 525 kts | 333° |
| 2026-04-27 00:43 | -26.35367 | -53.51593 | 44994 ft | 526 kts | 332° |
| 2026-04-27 00:43 | -26.28802 | -53.55442 | 44996 ft | 528 kts | 332° |
| 2026-04-27 00:44 | -26.22206 | -53.59308 | 44815 ft | 532 kts | 332° |
| 2026-04-27 00:44 | -26.18897 | -53.61245 | 44237 ft | 526 kts | 332° |
| 2026-04-27 00:44 | -26.15659 | -53.63140 | 43576 ft | 522 kts | 332° |
| 2026-04-27 00:45 | -26.12439 | -53.65023 | 42823 ft | 519 kts | 332° |
| 2026-04-27 00:45 | -26.09234 | -53.66896 | 42077 ft | 517 kts | 332° |
| 2026-04-27 00:45 | -26.06035 | -53.68765 | 41329 ft | 514 kts | 332° |
| 2026-04-27 00:45 | -26.02837 | -53.70632 | 40511 ft | 506 kts | 332° |
| 2026-04-27 00:46 | -25.99784 | -53.72413 | 39579 ft | 476 kts | 332° |
| 2026-04-27 00:46 | -25.96931 | -53.74077 | 38815 ft | 447 kts | 332° |
| 2026-04-27 00:46 | -25.94224 | -53.75654 | 38051 ft | 423 kts | 332° |
| 2026-04-27 00:46 | -25.92846 | -53.76457 | 37639 ft | 412 kts | 332° |
| 2026-04-27 00:47 | -25.90345 | -53.77913 | 36861 ft | 393 kts | 332° |
| 2026-04-27 00:47 | -25.88002 | -53.79276 | 36105 ft | 378 kts | 332° |
| 2026-04-27 00:47 | -25.85705 | -53.80613 | 35325 ft | 364 kts | 332° |
| 2026-04-27 00:47 | -25.83615 | -53.82112 | 34572 ft | 350 kts | 312° |
| 2026-04-27 00:48 | -25.82187 | -53.84219 | 33895 ft | 337 kts | 303° |
| 2026-04-27 00:48 | -25.80919 | -53.86392 | 33120 ft | 330 kts | 303° |
| 2026-04-27 00:48 | -25.79680 | -53.88530 | 32353 ft | 323 kts | 302° |
| 2026-04-27 00:48 | -25.78474 | -53.90625 | 31589 ft | 317 kts | 302° |
| 2026-04-27 00:49 | -25.77297 | -53.92677 | 30829 ft | 312 kts | 302° |
| 2026-04-27 00:49 | -25.76133 | -53.94706 | 30067 ft | 307 kts | 302° |
| 2026-04-27 00:49 | -25.74982 | -53.96713 | 29306 ft | 304 kts | 302° |
| 2026-04-27 00:49 | -25.73847 | -53.98696 | 28546 ft | 300 kts | 302° |
| 2026-04-27 00:50 | -25.72724 | -54.00657 | 27784 ft | 297 kts | 302° |
| 2026-04-27 00:50 | -25.70525 | -54.04488 | 26269 ft | 290 kts | 302° |
| 2026-04-27 00:50 | -25.69451 | -54.06358 | 25518 ft | 287 kts | 302° |
| 2026-04-27 00:51 | -25.68364 | -54.08250 | 24751 ft | 284 kts | 302° |
| 2026-04-27 00:51 | -25.67303 | -54.10097 | 23995 ft | 282 kts | 302° |
| 2026-04-27 00:51 | -25.66259 | -54.11912 | 23245 ft | 279 kts | 302° |
| 2026-04-27 00:51 | -25.65220 | -54.13717 | 22493 ft | 277 kts | 302° |
| 2026-04-27 00:52 | -25.64180 | -54.15525 | 21775 ft | 276 kts | 302° |
| 2026-04-27 00:52 | -25.63143 | -54.17327 | 21025 ft | 281 kts | 302° |
| 2026-04-27 00:52 | -25.62093 | -54.19150 | 20285 ft | 283 kts | 302° |
| 2026-04-27 00:52 | -25.61013 | -54.21024 | 19528 ft | 285 kts | 302° |
| 2026-04-27 00:53 | -25.59940 | -54.22886 | 18779 ft | 287 kts | 302° |
| 2026-04-27 00:53 | -25.58875 | -54.24732 | 18039 ft | 287 kts | 302° |
| 2026-04-27 00:53 | -25.57801 | -54.26594 | 17292 ft | 288 kts | 302° |
| 2026-04-27 00:53 | -25.56720 | -54.28468 | 16540 ft | 287 kts | 302° |
| 2026-04-27 00:54 | -25.55622 | -54.30370 | 15775 ft | 287 kts | 302° |
| 2026-04-27 00:54 | -25.54821 | -54.31756 | 15215 ft | 286 kts | 302° |
| 2026-04-27 00:54 | -25.53753 | -54.33606 | 14467 ft | 285 kts | 302° |
| 2026-04-27 00:54 | -25.52691 | -54.35443 | 13720 ft | 284 kts | 302° |
| 2026-04-27 00:55 | -25.51628 | -54.37283 | 12968 ft | 283 kts | 302° |
| 2026-04-27 00:55 | -25.50586 | -54.39084 | 12196 ft | 279 kts | 302° |
| 2026-04-27 00:55 | -25.49548 | -54.40876 | 11421 ft | 269 kts | 302° |
| 2026-04-27 00:55 | -25.48571 | -54.42565 | 10767 ft | 258 kts | 302° |
| 2026-04-27 00:56 | -25.47618 | -54.44211 | 10103 ft | 249 kts | 302° |
| 2026-04-27 00:56 | -25.46693 | -54.45808 | 9444 ft | 243 kts | 302° |
| 2026-04-27 00:56 | -25.45789 | -54.47369 | 8786 ft | 239 kts | 302° |
| 2026-04-27 00:56 | -25.44891 | -54.48917 | 8123 ft | 235 kts | 302° |
| 2026-04-27 00:57 | -25.44018 | -54.50423 | 7471 ft | 232 kts | 302° |
| 2026-04-27 00:57 | -25.43149 | -54.51921 | 6795 ft | 230 kts | 302° |
| 2026-04-27 00:57 | -25.42287 | -54.53408 | 6046 ft | 232 kts | 302° |
| 2026-04-27 00:57 | -25.41420 | -54.54901 | 5300 ft | 233 kts | 302° |
| 2026-04-27 00:58 | -25.40536 | -54.56424 | 4538 ft | 232 kts | 302° |
| 2026-04-27 00:58 | -25.39736 | -54.57937 | 4020 ft | 220 kts | 300° |
| 2026-04-27 00:58 | -25.38976 | -54.59315 | 3977 ft | 195 kts | 301° |
| 2026-04-27 00:58 | -25.38262 | -54.60577 | 4025 ft | 187 kts | 306° |
| 2026-04-27 00:59 | -25.37201 | -54.61379 | 4030 ft | 183 kts | 339° |
| 2026-04-27 00:59 | -25.35916 | -54.61564 | 4006 ft | 183 kts | 14° |
| 2026-04-27 00:59 | -25.34683 | -54.61112 | 4007 ft | 183 kts | 20° |
| 2026-04-27 00:59 | -25.33481 | -54.60602 | 3999 ft | 182 kts | 21° |
| 2026-04-27 01:00 | -25.32267 | -54.60084 | 3998 ft | 182 kts | 22° |
| 2026-04-27 01:00 | -25.31330 | -54.59165 | 4024 ft | 182 kts | 68° |
| 2026-04-27 01:00 | -25.31277 | -54.57772 | 4032 ft | 183 kts | 114° |
| 2026-04-27 01:00 | -25.32141 | -54.56772 | 4033 ft | 183 kts | 159° |
| 2026-04-27 01:01 | -25.33403 | -54.56751 | 4034 ft | 183 kts | 203° |
| 2026-04-27 01:01 | -25.34494 | -54.57508 | 4013 ft | 183 kts | 217° |
| 2026-04-27 01:01 | -25.35581 | -54.58244 | 4005 ft | 182 kts | 202° |
| 2026-04-27 01:01 | -25.36761 | -54.58784 | 3999 ft | 182 kts | 202° |
| 2026-04-27 01:02 | -25.37945 | -54.59321 | 3999 ft | 182 kts | 202° |
| 2026-04-27 01:02 | -25.39158 | -54.59820 | 3991 ft | 182 kts | 187° |
| 2026-04-27 01:02 | -25.40366 | -54.59522 | 4034 ft | 182 kts | 141° |
| 2026-04-27 01:02 | -25.41034 | -54.58329 | 4033 ft | 183 kts | 95° |
| 2026-04-27 01:03 | -25.40720 | -54.56988 | 4033 ft | 183 kts | 49° |
| 2026-04-27 01:03 | -25.39669 | -54.56194 | 4033 ft | 183 kts | 24° |
| 2026-04-27 01:03 | -25.38470 | -54.55623 | 3997 ft | 182 kts | 22° |
| 2026-04-27 01:03 | -25.37283 | -54.55106 | 4000 ft | 182 kts | 20° |
| 2026-04-27 01:04 | -25.36078 | -54.54600 | 3999 ft | 182 kts | 20° |
| 2026-04-27 01:04 | -25.34880 | -54.54099 | 3999 ft | 182 kts | 20° |
| 2026-04-27 01:04 | -25.33626 | -54.53919 | 4013 ft | 182 kts | 342° |
| 2026-04-27 01:04 | -25.32617 | -54.54769 | 4032 ft | 183 kts | 296° |
| 2026-04-27 01:05 | -25.32479 | -54.56166 | 4033 ft | 183 kts | 249° |
| 2026-04-27 01:05 | -25.33277 | -54.57227 | 4034 ft | 183 kts | 208° |
| 2026-04-27 01:05 | -25.34470 | -54.57808 | 4005 ft | 183 kts | 201° |
| 2026-04-27 01:05 | -25.35685 | -54.58330 | 3999 ft | 182 kts | 200° |
| 2026-04-27 01:06 | -25.36887 | -54.58824 | 3999 ft | 182 kts | 200° |
| 2026-04-27 01:06 | -25.38106 | -54.59322 | 3999 ft | 182 kts | 201° |
| 2026-04-27 01:06 | -25.39306 | -54.59833 | 3999 ft | 182 kts | 201° |
| 2026-04-27 01:06 | -25.40506 | -54.60348 | 3812 ft | 185 kts | 201° |
| 2026-04-27 01:07 | -25.41720 | -54.60869 | 3587 ft | 185 kts | 201° |
| 2026-04-27 01:07 | -25.42954 | -54.61399 | 3356 ft | 186 kts | 201° |
| 2026-04-27 01:07 | -25.44159 | -54.61916 | 3131 ft | 183 kts | 201° |
| 2026-04-27 01:07 | -25.45360 | -54.62432 | 2994 ft | 179 kts | 201° |
| 2026-04-27 01:08 | -25.46522 | -54.62932 | 2999 ft | 178 kts | 201° |
| 2026-04-27 01:08 | -25.47706 | -54.63439 | 2998 ft | 179 kts | 199° |
| 2026-04-27 01:08 | -25.48959 | -54.63423 | 2896 ft | 181 kts | 153° |
| 2026-04-27 01:08 | -25.49820 | -54.62449 | 2721 ft | 180 kts | 110° |
| 2026-04-27 01:09 | -25.50326 | -54.61163 | 2518 ft | 180 kts | 120° |
| 2026-04-27 01:09 | -25.51011 | -54.59989 | 2400 ft | 177 kts | 125° |
| 2026-04-27 01:09 | -25.51757 | -54.58903 | 2438 ft | 175 kts | 128° |
| 2026-04-27 01:09 | -25.52546 | -54.57835 | 2399 ft | 176 kts | 129° |
| 2026-04-27 01:10 | -25.53342 | -54.56785 | 2379 ft | 177 kts | 128° |
| 2026-04-27 01:10 | -25.54127 | -54.55709 | 2089 ft | 180 kts | 130° |
| 2026-04-27 01:10 | -25.54929 | -54.54673 | 1826 ft | 167 kts | 130° |
| 2026-04-27 01:10 | -25.55660 | -54.53740 | 1604 ft | 152 kts | 130° |
| 2026-04-27 01:11 | -25.56346 | -54.52867 | 1405 ft | 144 kts | 130° |
| 2026-04-27 01:11 | -25.57009 | -54.52025 | 1208 ft | 143 kts | 131° |
| 2026-04-27 01:11 | -25.57664 | -54.51188 | 1017 ft | 142 kts | 130° |
| 2026-04-27 01:11 | -25.58316 | -54.50361 | 832 ft | 140 kts | 131° |
| 2026-04-27 01:12 | -25.58940 | -54.49550 | 738 ft | 133 kts | 130° |
| 2026-04-27 01:12 | -25.59490 | -54.48849 | 768 ft | 103 kts | 131° |
| 2026-04-27 01:12 | -25.59908 | -54.48318 | 784 ft | 78 kts | 130° |
| 2026-04-27 01:12 | -25.60117 | -54.48049 | 778 ft | 12 kts | 130° |
| 2026-04-27 01:13 | -25.60190 | -54.47977 | 773 ft | 10 kts | 155° |
| 2026-04-27 01:13 | -25.60229 | -54.47948 | 770 ft | 6 kts | 98° |
| 2026-04-27 01:13 | -25.60193 | -54.47953 | 772 ft | 4 kts | 312° |
| 2026-04-27 01:13 | -25.60154 | -54.48000 | 776 ft | 16 kts | 312° |
| 2026-04-27 01:14 | -25.60045 | -54.48146 | 781 ft | 31 kts | 310° |
| 2026-04-27 01:14 | -25.59909 | -54.48318 | 784 ft | 27 kts | 310° |
| 2026-04-27 01:14 | -25.59788 | -54.48473 | 783 ft | 25 kts | 310° |
| 2026-04-27 01:14 | -25.59670 | -54.48624 | 777 ft | 26 kts | 309° |
| 2026-04-27 01:15 | -25.59551 | -54.48779 | 771 ft | 26 kts | 310° |
| 2026-04-27 01:15 | -25.59489 | -54.48865 | 768 ft | 5 kts | 281° |
| 2026-04-27 01:15 | -25.59511 | -54.48907 | 766 ft | 6 kts | 223° |
| 2026-04-27 01:15 | -25.59543 | -54.48940 | 766 ft | 3 kts | 221° |
| 2026-04-27 01:16 | -25.59555 | -54.48952 | 766 ft | 0 kts | 226° |
| 2026-04-27 01:16 | -25.59569 | -54.48974 | 766 ft | 5 kts | 253° |
| 2026-04-27 01:16 | -25.59554 | -54.49014 | 764 ft | 6 kts | 308° |
| 2026-04-27 01:16 | -25.59518 | -54.49063 | 761 ft | 9 kts | 310° |
| 2026-04-27 01:17 | -25.59517 | -54.49102 | 759 ft | 5 kts | 220° |
| 2026-04-27 01:17 | -25.59541 | -54.49124 | 759 ft | 3 kts | 219° |
| 2026-04-27 01:17 | -25.59552 | -54.49134 | 759 ft | 0 kts | 221° |
| 2026-04-27 01:17 | -25.59556 | -54.49139 | 759 ft | 1 kts | 220° |
| 2026-04-27 01:18 | -25.59560 | -54.49143 | 759 ft | 0 kts | 220° |